createdAt,value
2022-10-03T00:01:53.909Z,96.92
2022-10-03T00:04:38.483Z,97.13
2022-10-03T00:07:19.742Z,96.41
2022-10-03T00:10:02.868Z,96.05
2022-10-03T00:12:47.274Z,97.03
2022-10-03T00:15:21.994Z,97.77
2022-10-03T00:18:02.166Z,98.76
2022-10-03T00:20:50.250Z,97.79
2022-10-03T00:23:25.455Z,96.71
2022-10-03T00:26:26.303Z,96.21
2022-10-03T00:29:11.838Z,96.25
2022-10-03T00:31:48.804Z,96.25
2022-10-03T00:34:27.176Z,95.78
2022-10-03T00:37:22.531Z,94.83
2022-10-03T00:40:31.133Z,93.97
2022-10-03T00:43:28.694Z,93.67
2022-10-03T00:46:22.422Z,94.32
2022-10-03T00:49:24.903Z,94.94
2022-10-03T00:52:07.112Z,95.08
2022-10-03T00:55:01.577Z,94.38
2022-10-03T00:57:57.634Z,94.02
2022-10-03T01:00:29.207Z,93.99
2022-10-03T01:03:17.776Z,94.00
2022-10-03T01:05:54.014Z,93.78
2022-10-03T01:08:41.832Z,92.83
2022-10-03T01:11:22.522Z,92.09
2022-10-03T01:14:05.928Z,91.38
2022-10-03T01:16:44.850Z,91.84
2022-10-03T01:19:32.912Z,92.69
2022-10-03T01:22:17.210Z,92.79
2022-10-03T01:24:53.566Z,93.14
2022-10-03T01:27:33.151Z,92.94
2022-10-03T01:30:22.989Z,92.48
2022-10-03T01:32:57.445Z,92.44
2022-10-03T01:35:37.520Z,91.81
2022-10-03T01:38:15.565Z,92.52
2022-10-03T01:40:51.515Z,92.04
2022-10-03T01:43:22.320Z,92.11
2022-10-03T01:46:02.020Z,91.95
2022-10-03T01:48:41.218Z,92.10
2022-10-03T01:51:12.906Z,92.38
2022-10-03T01:53:51.315Z,92.46
2022-10-03T01:56:26.798Z,92.52
2022-10-03T01:59:01.480Z,92.61
2022-10-03T02:01:44.763Z,92.21
2022-10-03T02:04:21.720Z,92.79
2022-10-03T02:06:59.561Z,92.80
2022-10-03T02:09:36.455Z,92.31
2022-10-03T02:12:10.181Z,92.01
2022-10-03T02:14:54.616Z,91.86
2022-10-03T02:17:30.504Z,91.54
2022-10-03T02:20:07.931Z,91.07
2022-10-03T02:22:42.575Z,91.37
2022-10-03T02:25:22.864Z,91.50
2022-10-03T02:28:21.649Z,92.06
2022-10-03T02:31:33.393Z,91.87
2022-10-03T02:34:25.514Z,91.63
2022-10-03T02:37:38.287Z,90.90
2022-10-03T02:40:37.122Z,90.86
2022-10-03T02:43:26.379Z,91.14
2022-10-03T02:46:41.129Z,90.35
2022-10-03T02:49:44.718Z,91.09
2022-10-03T02:52:26.659Z,91.10
2022-10-03T02:55:16.898Z,91.16
2022-10-03T02:58:17.286Z,91.27
2022-10-03T03:01:20.784Z,91.27
2022-10-03T03:04:11.866Z,90.95
2022-10-03T03:06:58.608Z,90.76
2022-10-03T03:10:01.578Z,90.74
2022-10-03T03:12:56.626Z,91.22
2022-10-03T03:16:11.502Z,90.58
2022-10-03T03:18:45.338Z,90.05
2022-10-03T03:21:22.185Z,90.27
2022-10-03T03:24:15.666Z,90.29
2022-10-03T03:27:05.949Z,89.96
2022-10-03T03:29:43.361Z,89.43
2022-10-03T03:32:24.348Z,89.58
2022-10-03T03:34:59.918Z,89.13
2022-10-03T03:37:35.808Z,89.55
2022-10-03T03:40:32.345Z,89.16
2022-10-03T03:43:16.302Z,88.99
2022-10-03T03:45:54.355Z,88.90
2022-10-03T03:48:44.128Z,88.65
2022-10-03T03:51:23.054Z,88.82
2022-10-03T03:54:27.672Z,89.08
2022-10-03T03:57:16.047Z,89.76
2022-10-03T04:00:02.666Z,90.05
2022-10-03T04:02:45.037Z,90.04
2022-10-03T04:05:26.086Z,89.26
2022-10-03T04:08:12.384Z,88.75
2022-10-03T04:10:53.288Z,88.83
2022-10-03T04:13:33.308Z,89.19
2022-10-03T04:16:42.028Z,89.02
2022-10-03T04:19:17.716Z,87.30
2022-10-03T04:22:06.187Z,87.25
2022-10-03T04:24:56.665Z,87.69
2022-10-03T04:27:38.395Z,87.93
2022-10-03T04:30:14.792Z,87.96
2022-10-03T04:32:56.585Z,88.40
2022-10-03T04:35:37.492Z,88.56
2022-10-03T04:38:14.167Z,88.22
2022-10-03T04:40:51.540Z,87.80
2022-10-03T04:43:34.680Z,87.50
2022-10-03T04:46:17.609Z,87.85
2022-10-03T04:48:54.185Z,87.77
2022-10-03T04:51:41.886Z,88.06
2022-10-03T04:54:21.368Z,88.17
2022-10-03T04:56:57.078Z,88.79
2022-10-03T04:59:36.041Z,89.15
2022-10-03T05:02:12.744Z,88.40
2022-10-03T05:04:47.079Z,88.17
2022-10-03T05:07:21.668Z,88.16
2022-10-03T05:09:55.599Z,88.39
2022-10-03T05:12:35.381Z,88.17
2022-10-03T05:15:18.304Z,88.24
2022-10-03T05:17:53.112Z,88.58
2022-10-03T05:20:36.326Z,88.82
2022-10-03T05:23:17.764Z,89.03
2022-10-03T05:26:16.299Z,88.78
2022-10-03T05:28:51.855Z,88.45
2022-10-03T05:31:33.694Z,88.35
2022-10-03T05:34:17.615Z,88.19
2022-10-03T05:37:09.325Z,87.72
2022-10-03T05:39:47.014Z,87.83
2022-10-03T05:42:36.049Z,87.79
2022-10-03T05:45:07.632Z,87.79
2022-10-03T05:47:49.855Z,88.21
2022-10-03T05:50:42.971Z,88.81
2022-10-03T05:53:53.565Z,88.87
2022-10-03T05:56:41.112Z,88.03
2022-10-03T05:59:33.560Z,87.63
2022-10-03T06:02:36.456Z,87.53
2022-10-03T06:05:16.407Z,87.71
2022-10-03T06:08:06.461Z,87.74
2022-10-03T06:10:44.917Z,87.84
2022-10-03T06:13:20.489Z,88.55
2022-10-03T06:16:00.642Z,88.29
2022-10-03T06:19:06.641Z,88.02
2022-10-03T06:22:07.603Z,88.44
2022-10-03T06:25:07.875Z,87.64
2022-10-03T06:28:11.382Z,87.21
2022-10-03T06:31:02.678Z,87.97
2022-10-03T06:34:13.277Z,88.26
2022-10-03T06:37:01.128Z,88.98
2022-10-03T06:40:10.202Z,89.75
2022-10-03T06:43:13.618Z,90.09
2022-10-03T06:46:04.382Z,90.12
2022-10-03T06:49:03.394Z,91.07
2022-10-03T06:51:54.297Z,90.98
2022-10-03T06:55:04.388Z,91.05
2022-10-03T06:58:02.348Z,91.44
2022-10-03T07:00:49.328Z,91.15
2022-10-03T07:03:49.272Z,91.75
2022-10-03T07:06:31.845Z,91.58
2022-10-03T07:09:32.976Z,91.32
2022-10-03T07:12:33.621Z,90.92
2022-10-03T07:15:57.782Z,91.06
2022-10-03T07:18:53.930Z,91.33
2022-10-03T07:21:53.097Z,91.60
2022-10-03T07:24:41.477Z,91.69
2022-10-03T07:27:33.400Z,93.14
2022-10-03T07:30:14.471Z,92.82
2022-10-03T07:33:27.570Z,92.12
2022-10-03T07:36:49.139Z,91.64
2022-10-03T07:39:42.202Z,91.27
2022-10-03T07:42:52.658Z,91.07
2022-10-03T07:45:38.001Z,90.94
2022-10-03T07:48:53.164Z,90.79
2022-10-03T07:51:30.302Z,92.13
2022-10-03T07:54:30.687Z,91.84
2022-10-03T07:57:13.072Z,91.23
2022-10-03T08:00:05.617Z,91.20
2022-10-03T08:03:06.053Z,89.84
2022-10-03T08:05:50.565Z,89.12
2022-10-03T08:08:43.140Z,85.77
2022-10-03T08:11:37.759Z,85.94
2022-10-03T08:14:20.236Z,84.44
2022-10-03T08:17:23.399Z,83.25
2022-10-03T08:20:13.023Z,84.91
2022-10-03T08:22:56.944Z,84.11
2022-10-03T08:25:46.404Z,84.18
2022-10-03T08:28:43.083Z,84.41
2022-10-03T08:31:46.600Z,84.57
2022-10-03T08:34:59.653Z,85.15
2022-10-03T08:37:55.611Z,81.99
2022-10-03T08:40:57.758Z,82.53
2022-10-03T08:43:54.573Z,80.34
2022-10-03T08:46:47.158Z,79.31
2022-10-03T08:49:37.855Z,74.50
2022-10-03T08:52:21.324Z,59.50
2022-10-03T08:55:31.115Z,48.17
2022-10-03T08:58:21.735Z,42.42
2022-10-03T09:01:19.803Z,39.75
2022-10-03T09:04:24.419Z,41.28
2022-10-03T09:07:17.184Z,42.09
2022-10-03T09:10:16.370Z,43.14
2022-10-03T09:13:07.428Z,44.73
2022-10-03T09:16:08.163Z,46.92
2022-10-03T09:18:56.865Z,48.93
2022-10-03T09:21:51.423Z,48.54
2022-10-03T09:24:51.325Z,46.26
2022-10-03T09:27:44.413Z,49.07
2022-10-03T09:30:23.982Z,52.18
2022-10-03T09:33:45.218Z,53.60
2022-10-03T09:36:37.232Z,54.65
2022-10-03T09:39:26.390Z,57.04
2022-10-03T09:42:26.820Z,58.94
2022-10-03T09:45:35.001Z,55.27
2022-10-03T09:48:17.638Z,52.42
2022-10-03T09:51:15.347Z,52.93
2022-10-03T09:54:12.513Z,54.11
2022-10-03T09:57:04.182Z,55.28
2022-10-03T09:59:46.397Z,55.84
2022-10-03T10:02:41.666Z,56.88
2022-10-03T10:05:47.576Z,58.73
2022-10-03T10:08:48.584Z,59.67
2022-10-03T10:11:42.228Z,61.39
2022-10-03T10:14:25.729Z,62.22
2022-10-03T10:17:38.870Z,62.33
2022-10-03T10:20:23.774Z,58.17
2022-10-03T10:23:34.364Z,55.32
2022-10-03T10:26:46.821Z,52.72
2022-10-03T10:29:40.895Z,54.83
2022-10-03T10:32:54.413Z,54.93
2022-10-03T10:36:02.310Z,54.51
2022-10-03T10:39:02.759Z,57.05
2022-10-03T10:42:03.610Z,56.66
2022-10-03T10:45:03.597Z,59.27
2022-10-03T10:48:16.835Z,59.48
2022-10-03T10:51:23.303Z,58.85
2022-10-03T10:54:48.985Z,60.80
2022-10-03T10:57:26.746Z,59.62
2022-10-03T11:00:29.185Z,60.32
2022-10-03T11:03:30.271Z,61.19
2022-10-03T11:06:32.474Z,61.98
2022-10-03T11:09:38.196Z,63.03
2022-10-03T11:12:45.666Z,62.24
2022-10-03T11:15:43.393Z,62.18
2022-10-03T11:18:45.868Z,62.17
2022-10-03T11:22:00.598Z,62.92
2022-10-03T11:24:56.647Z,61.57
2022-10-03T11:27:59.398Z,61.66
2022-10-03T11:31:14.822Z,62.07
2022-10-03T11:34:23.702Z,61.49
2022-10-03T11:37:07.672Z,60.14
2022-10-03T11:39:48.156Z,60.62
2022-10-03T11:42:32.791Z,61.93
2022-10-03T11:45:03.517Z,62.31
2022-10-03T11:47:52.680Z,60.60
2022-10-03T11:50:36.401Z,58.53
2022-10-03T11:53:15.872Z,58.81
2022-10-03T11:55:48.443Z,59.46
2022-10-03T11:58:33.952Z,59.31
2022-10-03T12:01:27.844Z,57.75
2022-10-03T12:04:03.173Z,56.69
2022-10-03T12:07:18.134Z,56.20
2022-10-03T12:09:57.039Z,55.10
2022-10-03T12:12:35.930Z,55.99
2022-10-03T12:15:18.102Z,56.11
2022-10-03T12:17:55.537Z,56.50
2022-10-03T12:20:28.530Z,57.35
2022-10-03T12:23:03.493Z,57.54
2022-10-03T12:25:34.778Z,58.43
2022-10-03T12:28:16.385Z,58.71
2022-10-03T12:30:50.427Z,59.75
2022-10-03T12:33:44.691Z,59.91
2022-10-03T12:36:16.138Z,60.58
2022-10-03T12:39:10.403Z,60.53
2022-10-03T12:42:06.065Z,61.54
2022-10-03T12:44:47.638Z,61.14
2022-10-03T12:47:51.040Z,62.43
2022-10-03T12:50:31.033Z,62.73
2022-10-03T12:53:25.176Z,62.66
2022-10-03T12:56:07.994Z,62.95
2022-10-03T12:58:49.095Z,62.72
2022-10-03T13:01:26.993Z,62.93
2022-10-03T13:03:58.236Z,63.90
2022-10-03T13:07:01.699Z,63.72
2022-10-03T13:09:42.786Z,63.29
2022-10-03T13:12:25.523Z,62.69
2022-10-03T13:15:41.496Z,62.73
2022-10-03T13:18:22.502Z,61.42
2022-10-03T13:20:59.746Z,61.93
2022-10-03T13:23:38.145Z,61.94
2022-10-03T13:26:17.913Z,61.65
2022-10-03T13:29:13.173Z,59.98
2022-10-03T13:31:56.047Z,61.99
2022-10-03T13:34:28.720Z,59.57
2022-10-03T13:37:04.922Z,59.05
2022-10-03T13:39:46.049Z,58.95
2022-10-03T13:42:19.258Z,57.91
2022-10-03T13:44:54.424Z,57.98
2022-10-03T13:47:39.726Z,56.83
2022-10-03T13:50:16.934Z,56.02
2022-10-03T13:52:47.555Z,54.29
2022-10-03T13:55:26.324Z,55.72
2022-10-03T13:58:11.478Z,55.68
2022-10-03T14:00:52.416Z,55.81
2022-10-03T14:03:28.634Z,55.86
2022-10-03T14:06:06.306Z,55.58
2022-10-03T14:09:00.071Z,55.07
2022-10-03T14:11:39.588Z,55.56
2022-10-03T14:14:34.321Z,56.24
2022-10-03T14:17:10.181Z,54.90
2022-10-03T14:19:52.289Z,54.65
2022-10-03T14:22:43.211Z,53.81
2022-10-03T14:25:22.337Z,51.23
2022-10-03T14:27:55.403Z,53.07
2022-10-03T14:30:25.255Z,54.17
2022-10-03T14:33:10.800Z,54.84
2022-10-03T14:35:44.057Z,54.66
2022-10-03T14:39:00.629Z,55.10
2022-10-03T14:41:39.997Z,55.21
2022-10-03T14:44:13.489Z,54.97
2022-10-03T14:46:47.368Z,55.94
2022-10-03T14:49:48.490Z,55.96
2022-10-03T14:52:21.709Z,56.78
2022-10-03T14:54:54.308Z,56.76
2022-10-03T14:57:39.650Z,56.64
2022-10-03T15:00:27.864Z,56.62
2022-10-03T15:02:55.916Z,55.73
2022-10-03T15:05:36.295Z,55.61
2022-10-03T15:08:14.416Z,56.28
2022-10-03T15:10:46.094Z,58.28
2022-10-03T15:13:19.073Z,59.42
2022-10-03T15:15:48.724Z,59.87
2022-10-03T15:18:19.521Z,59.05
2022-10-03T15:20:49.191Z,57.70
2022-10-03T15:23:22.069Z,57.00
2022-10-03T15:25:54.659Z,57.39
2022-10-03T15:28:26.211Z,58.49
2022-10-03T15:30:56.692Z,59.10
2022-10-03T15:33:32.215Z,59.59
2022-10-03T15:36:14.570Z,59.68
2022-10-03T15:38:46.604Z,59.92
2022-10-03T15:41:17.569Z,60.87
2022-10-03T15:43:52.306Z,60.80
2022-10-03T15:46:30.336Z,61.20
2022-10-03T15:49:02.369Z,61.65
2022-10-03T15:51:32.812Z,61.69
2022-10-03T15:54:02.609Z,62.01
2022-10-03T15:56:37.916Z,62.12
2022-10-03T15:59:09.506Z,62.27
2022-10-03T16:01:40.486Z,62.08
2022-10-03T16:04:17.006Z,61.51
2022-10-03T16:06:50.928Z,62.94
2022-10-03T16:09:27.389Z,63.00
2022-10-03T16:12:08.927Z,62.54
2022-10-03T16:14:42.698Z,63.49
2022-10-03T16:17:17.615Z,62.58
2022-10-03T16:19:54.161Z,63.85
2022-10-03T16:22:25.999Z,62.78
2022-10-03T16:25:07.394Z,62.84
2022-10-03T16:27:41.442Z,63.24
2022-10-03T16:30:29.090Z,64.84
2022-10-03T16:33:17.623Z,64.94
2022-10-03T16:35:48.964Z,65.89
2022-10-03T16:38:24.357Z,65.42
2022-10-03T16:40:56.500Z,65.21
2022-10-03T16:43:26.660Z,64.58
2022-10-03T16:45:56.534Z,65.05
2022-10-03T16:48:45.615Z,65.94
2022-10-03T16:51:20.999Z,66.71
2022-10-03T16:53:51.629Z,66.93
2022-10-03T16:56:24.239Z,66.90
2022-10-03T16:58:55.618Z,67.08
2022-10-03T17:01:32.977Z,67.33
2022-10-03T17:04:20.666Z,68.36
2022-10-03T17:06:50.241Z,68.64
2022-10-03T17:09:25.784Z,68.96
2022-10-03T17:11:56.449Z,68.99
2022-10-03T17:14:28.916Z,69.08
2022-10-03T17:17:02.822Z,70.04
2022-10-03T17:19:35.564Z,69.82
2022-10-03T17:22:14.155Z,69.74
2022-10-03T17:24:47.785Z,69.75
2022-10-03T17:27:22.652Z,69.67
2022-10-03T17:29:58.345Z,69.70
2022-10-03T17:32:31.534Z,70.09
2022-10-03T17:35:04.318Z,70.92
2022-10-03T17:38:44.485Z,71.11
2022-10-03T17:41:14.956Z,71.71
2022-10-03T17:43:49.227Z,72.29
2022-10-03T17:46:24.499Z,72.43
2022-10-03T17:48:56.253Z,72.87
2022-10-03T17:51:32.406Z,72.30
2022-10-03T17:54:04.191Z,72.29
2022-10-03T17:56:34.227Z,73.10
2022-10-03T17:59:05.971Z,73.71
2022-10-03T18:01:40.492Z,73.49
2022-10-03T18:04:17.202Z,72.94
2022-10-03T18:06:48.715Z,72.55
2022-10-03T18:09:26.307Z,73.48
2022-10-03T18:11:59.999Z,73.42
2022-10-03T18:14:37.525Z,73.59
2022-10-03T18:17:13.482Z,73.64
2022-10-03T18:19:55.815Z,73.58
2022-10-03T18:22:31.501Z,73.58
2022-10-03T18:25:28.178Z,73.91
2022-10-03T18:28:14.870Z,74.67
2022-10-03T18:30:48.061Z,74.94
2022-10-03T18:33:20.723Z,75.40
2022-10-03T18:35:50.452Z,75.96
2022-10-03T18:38:22.145Z,75.87
2022-10-03T18:40:53.430Z,75.63
2022-10-03T18:43:29.295Z,75.34
2022-10-03T18:46:15.378Z,75.07
2022-10-03T18:49:30.132Z,75.22
2022-10-03T18:51:57.945Z,75.33
2022-10-03T18:54:35.953Z,75.92
2022-10-03T18:57:10.417Z,75.67
2022-10-03T18:59:46.380Z,75.85
2022-10-03T19:02:21.386Z,76.49
2022-10-03T19:04:55.466Z,76.74
2022-10-03T19:07:25.577Z,76.67
2022-10-03T19:10:19.389Z,76.97
2022-10-03T19:12:49.997Z,77.01
2022-10-03T19:15:22.369Z,76.43
2022-10-03T19:18:04.071Z,76.23
2022-10-03T19:20:37.808Z,75.79
2022-10-03T19:23:10.623Z,75.85
2022-10-03T19:25:41.270Z,76.64
2022-10-03T19:28:18.091Z,76.54
2022-10-03T19:30:47.529Z,76.31
2022-10-03T19:33:21.757Z,76.69
2022-10-03T19:35:54.443Z,77.23
2022-10-03T19:38:27.499Z,77.17
2022-10-03T19:41:00.178Z,77.25
2022-10-03T19:43:37.100Z,77.55
2022-10-03T19:46:13.845Z,77.47
2022-10-03T19:48:49.094Z,78.21
2022-10-03T19:51:25.251Z,78.07
2022-10-03T19:53:54.865Z,77.92
2022-10-03T19:56:25.310Z,77.72
2022-10-03T19:59:02.433Z,77.43
2022-10-03T20:01:36.351Z,77.93
2022-10-03T20:04:04.012Z,79.10
2022-10-03T20:06:39.619Z,79.52
2022-10-03T20:09:17.933Z,79.53
2022-10-03T20:11:47.535Z,79.59
2022-10-03T20:14:17.425Z,79.50
2022-10-03T20:16:49.391Z,78.97
2022-10-03T20:19:23.458Z,79.14
2022-10-03T20:21:57.577Z,78.97
2022-10-03T20:24:32.723Z,79.48
2022-10-03T20:27:12.197Z,79.64
2022-10-03T20:29:46.970Z,81.01
2022-10-03T20:32:17.319Z,82.44
2022-10-03T20:34:52.294Z,82.85
2022-10-03T20:37:38.343Z,83.34
2022-10-03T20:40:20.887Z,82.59
2022-10-03T20:42:50.662Z,81.69
2022-10-03T20:45:23.184Z,81.53
2022-10-03T20:47:59.298Z,81.84
2022-10-03T20:50:31.606Z,82.06
2022-10-03T20:53:02.684Z,81.56
2022-10-03T20:55:35.683Z,81.01
2022-10-03T20:58:13.505Z,80.31
2022-10-03T21:00:49.295Z,79.92
2022-10-03T21:03:27.447Z,79.26
2022-10-03T21:05:58.540Z,79.49
2022-10-03T21:08:30.921Z,79.86
2022-10-03T21:11:02.063Z,79.94
2022-10-03T21:13:34.359Z,79.85
2022-10-03T21:16:04.038Z,80.43
2022-10-03T21:18:35.713Z,80.59
2022-10-03T21:21:08.730Z,80.25
2022-10-03T21:23:42.421Z,79.94
2022-10-03T21:26:11.747Z,79.43
2022-10-03T21:28:39.556Z,79.31
2022-10-03T21:31:38.781Z,79.41
2022-10-03T21:34:16.883Z,80.01
2022-10-03T21:36:52.747Z,79.77
2022-10-03T21:39:33.487Z,79.19
2022-10-03T21:42:11.735Z,78.70
2022-10-03T21:44:55.379Z,78.75
2022-10-03T21:47:34.548Z,79.02
2022-10-03T21:50:06.840Z,79.30
2022-10-03T21:52:49.453Z,79.03
2022-10-03T21:55:51.824Z,78.80
2022-10-03T21:58:36.637Z,78.47
2022-10-03T22:01:12.041Z,78.53
2022-10-03T22:03:46.379Z,78.26
2022-10-03T22:06:20.073Z,78.18
2022-10-03T22:08:48.971Z,77.98
2022-10-03T22:11:30.895Z,77.58
2022-10-03T22:14:10.192Z,78.17
2022-10-03T22:16:46.322Z,78.76
2022-10-03T22:19:21.409Z,78.76
2022-10-03T22:22:18.688Z,78.50
2022-10-03T22:24:56.564Z,78.18
2022-10-03T22:27:33.535Z,77.73
2022-10-03T22:30:06.206Z,77.35
2022-10-03T22:32:39.871Z,77.67
2022-10-03T22:35:19.975Z,77.61
2022-10-03T22:37:47.853Z,77.64
2022-10-03T22:40:15.694Z,78.29
2022-10-03T22:42:56.603Z,77.92
2022-10-03T22:45:28.113Z,77.49
2022-10-03T22:47:59.493Z,77.39
2022-10-03T22:50:32.335Z,77.90
2022-10-03T22:53:02.132Z,77.44
2022-10-03T22:55:31.469Z,77.47
2022-10-03T22:58:02.094Z,77.27
2022-10-03T23:00:35.640Z,77.12
2022-10-03T23:03:08.036Z,77.30
2022-10-03T23:05:57.540Z,77.21
2022-10-03T23:08:36.842Z,77.05
2022-10-03T23:11:10.579Z,76.68
2022-10-03T23:13:42.048Z,76.93
2022-10-03T23:16:23.442Z,76.74
2022-10-03T23:19:05.345Z,76.44
2022-10-03T23:21:34.264Z,77.32
2022-10-03T23:24:08.394Z,77.72
2022-10-03T23:27:23.569Z,77.39
2022-10-03T23:30:53.897Z,77.46
2022-10-03T23:33:53.439Z,77.35
2022-10-03T23:36:25.263Z,77.53
2022-10-03T23:39:01.507Z,77.58
2022-10-03T23:41:58.682Z,77.32
2022-10-03T23:44:49.333Z,77.45
2022-10-03T23:47:21.278Z,77.48
2022-10-03T23:49:51.290Z,77.25
2022-10-03T23:52:23.662Z,77.00
2022-10-03T23:54:54.337Z,76.83
2022-10-03T23:57:26.538Z,76.44
2022-10-03T23:59:54.139Z,76.49
